createdAt,value
2018-12-26T00:00:11.352Z,96.10
2018-12-26T00:02:42.359Z,95.70
2018-12-26T00:05:10.285Z,95.40
2018-12-26T00:07:38.296Z,95.50
2018-12-26T00:10:06.461Z,95.40
2018-12-26T00:12:37.969Z,95.30
2018-12-26T00:15:06.324Z,95.60
2018-12-26T00:17:34.406Z,95.50
2018-12-26T00:20:03.913Z,95.80
2018-12-26T00:22:32.097Z,95.70
2018-12-26T00:25:03.258Z,96.00
2018-12-26T00:27:31.266Z,95.90
2018-12-26T00:29:59.149Z,96.10
2018-12-26T00:32:27.145Z,96.20
2018-12-26T00:34:57.357Z,96.70
2018-12-26T00:37:25.506Z,96.40
2018-12-26T00:39:53.631Z,96.10
2018-12-26T00:42:21.522Z,96.40
2018-12-26T00:44:49.610Z,95.70
2018-12-26T00:47:20.220Z,95.80
2018-12-26T00:49:48.249Z,96.30
2018-12-26T00:52:16.309Z,96.00
2018-12-26T00:54:44.257Z,96.00
2018-12-26T00:57:15.809Z,95.40
2018-12-26T00:59:43.949Z,96.10
2018-12-26T01:02:11.835Z,96.10
2018-12-26T01:04:39.843Z,96.50
2018-12-26T01:07:07.795Z,96.90
2018-12-26T01:09:35.856Z,96.80
2018-12-26T01:12:03.838Z,97.30
2018-12-26T01:14:31.851Z,97.30
2018-12-26T01:17:01.409Z,97.50
2018-12-26T01:19:29.807Z,97.20
2018-12-26T01:22:01.036Z,97.50
2018-12-26T01:24:28.914Z,97.30
2018-12-26T01:26:56.870Z,97.00
2018-12-26T01:29:24.885Z,96.90
2018-12-26T01:31:52.833Z,96.70
2018-12-26T01:34:20.881Z,97.00
2018-12-26T01:36:48.927Z,97.10
2018-12-26T01:39:16.871Z,96.70
2018-12-26T01:41:44.874Z,96.90
2018-12-26T01:44:13.023Z,96.50
2018-12-26T01:46:41.043Z,96.60
2018-12-26T01:49:08.891Z,96.60
2018-12-26T01:51:36.911Z,96.30
2018-12-26T01:54:04.869Z,96.60
2018-12-26T01:56:32.796Z,96.70
2018-12-26T01:59:00.820Z,96.80
2018-12-26T02:01:28.757Z,96.90
2018-12-26T02:03:56.777Z,96.50
2018-12-26T02:06:24.763Z,96.80
2018-12-26T02:08:52.658Z,96.70
2018-12-26T02:11:20.741Z,97.00
2018-12-26T02:13:48.689Z,97.00
2018-12-26T02:16:16.851Z,96.70
2018-12-26T02:18:44.733Z,97.40
2018-12-26T02:21:12.659Z,96.90
2018-12-26T02:23:43.737Z,97.00
2018-12-26T02:26:11.704Z,96.60
2018-12-26T02:28:39.559Z,96.30
2018-12-26T02:31:10.718Z,97.30
2018-12-26T02:33:38.787Z,97.10
2018-12-26T02:36:06.732Z,97.00
2018-12-26T02:38:34.795Z,97.20
2018-12-26T02:41:02.683Z,96.80
2018-12-26T02:43:30.708Z,97.30
2018-12-26T02:45:58.627Z,96.90
2018-12-26T02:48:26.504Z,97.10
2018-12-26T02:50:54.945Z,96.60
2018-12-26T02:53:22.795Z,96.60
2018-12-26T02:55:50.901Z,96.10
2018-12-26T02:58:18.856Z,95.60
2018-12-26T03:00:46.771Z,96.40
2018-12-26T03:03:14.734Z,96.10
2018-12-26T03:05:42.837Z,95.70
2018-12-26T03:08:10.771Z,95.60
2018-12-26T03:10:38.797Z,96.60
2018-12-26T03:13:06.696Z,95.90
2018-12-26T03:15:34.502Z,95.60
2018-12-26T03:18:02.504Z,95.50
2018-12-26T03:20:30.496Z,96.00
2018-12-26T03:22:58.427Z,95.80
2018-12-26T03:25:26.445Z,95.40
2018-12-26T03:27:54.390Z,95.40
2018-12-26T03:30:22.241Z,95.20
2018-12-26T03:32:50.229Z,95.20
2018-12-26T03:35:18.218Z,95.00
2018-12-26T03:37:46.099Z,95.00
2018-12-26T03:40:14.142Z,94.80
2018-12-26T03:42:44.447Z,93.90
2018-12-26T03:45:12.760Z,94.40
2018-12-26T03:47:42.175Z,94.20
2018-12-26T03:50:10.242Z,95.00
2018-12-26T03:52:38.109Z,94.70
2018-12-26T03:55:06.152Z,94.90
2018-12-26T03:57:34.133Z,94.40
2018-12-26T04:00:02.174Z,93.70
2018-12-26T04:02:30.179Z,94.00
2018-12-26T04:04:58.267Z,94.00
2018-12-26T04:07:26.137Z,94.00
2018-12-26T04:09:54.286Z,93.90
2018-12-26T04:12:22.275Z,94.40
2018-12-26T04:14:50.268Z,94.50
2018-12-26T04:17:18.197Z,94.00
2018-12-26T04:19:46.595Z,93.50
2018-12-26T04:22:14.902Z,93.40
2018-12-26T04:24:45.521Z,93.70
2018-12-26T04:27:15.632Z,93.70
2018-12-26T04:29:43.775Z,93.10
2018-12-26T04:32:11.997Z,93.10
2018-12-26T04:34:40.385Z,93.20
2018-12-26T04:37:09.791Z,93.40
2018-12-26T04:39:38.806Z,93.80
2018-12-26T04:42:07.099Z,93.30
2018-12-26T04:44:35.825Z,93.70
2018-12-26T04:47:05.366Z,93.40
2018-12-26T04:49:33.511Z,92.80
2018-12-26T04:52:01.528Z,93.30
2018-12-26T04:54:29.585Z,93.00
2018-12-26T04:56:57.586Z,92.60
2018-12-26T04:59:25.683Z,92.60
2018-12-26T05:01:53.861Z,92.20
2018-12-26T05:04:22.082Z,92.30
2018-12-26T05:06:57.103Z,92.80
2018-12-26T05:09:27.397Z,92.80
2018-12-26T05:11:55.559Z,93.10
2018-12-26T05:14:23.572Z,93.10
2018-12-26T05:16:51.817Z,92.40
2018-12-26T05:19:19.848Z,92.40
2018-12-26T05:21:48.014Z,92.20
2018-12-26T05:24:16.058Z,93.30
2018-12-26T05:26:44.124Z,93.20
2018-12-26T05:29:12.093Z,93.00
2018-12-26T05:31:40.125Z,92.80
2018-12-26T05:34:14.005Z,92.90
2018-12-26T05:36:42.531Z,92.30
2018-12-26T05:39:10.699Z,91.60
2018-12-26T05:41:38.800Z,92.50
2018-12-26T05:44:06.940Z,92.10
2018-12-26T05:46:35.131Z,91.90
2018-12-26T05:49:03.167Z,92.20
2018-12-26T05:51:31.270Z,91.80
2018-12-26T05:53:59.368Z,91.80
2018-12-26T05:56:27.744Z,92.00
2018-12-26T05:59:07.384Z,91.90
2018-12-26T06:01:39.855Z,92.20
2018-12-26T06:04:07.773Z,92.10
2018-12-26T06:06:36.826Z,92.10
2018-12-26T06:09:08.380Z,91.60
2018-12-26T06:11:37.292Z,91.70
2018-12-26T06:14:05.394Z,91.30
2018-12-26T06:16:33.651Z,91.50
2018-12-26T06:19:01.738Z,91.30
2018-12-26T06:21:29.688Z,91.30
2018-12-26T06:23:57.807Z,91.30
2018-12-26T06:26:25.971Z,92.10
2018-12-26T06:28:57.840Z,91.50
2018-12-26T06:31:27.813Z,92.00
2018-12-26T06:34:00.102Z,91.30
2018-12-26T06:36:33.970Z,91.20
2018-12-26T06:39:02.225Z,91.70
2018-12-26T06:41:30.188Z,91.20
2018-12-26T06:43:59.217Z,91.40
2018-12-26T06:46:27.293Z,92.20
2018-12-26T06:48:57.995Z,91.60
2018-12-26T06:51:26.007Z,92.00
2018-12-26T06:53:54.105Z,92.10
2018-12-26T06:56:21.960Z,92.10
2018-12-26T06:58:49.912Z,91.80
2018-12-26T07:01:17.896Z,91.70
2018-12-26T07:03:46.287Z,92.10
2018-12-26T07:06:14.235Z,92.00
2018-12-26T07:08:42.232Z,91.20
2018-12-26T07:11:10.077Z,91.90
2018-12-26T07:13:37.955Z,91.70
2018-12-26T07:16:05.933Z,91.10
2018-12-26T07:18:33.776Z,91.80
2018-12-26T07:21:01.670Z,91.00
2018-12-26T07:23:29.635Z,91.50
2018-12-26T07:25:57.597Z,91.80
2018-12-26T07:28:25.671Z,91.80
2018-12-26T07:30:53.520Z,92.00
2018-12-26T07:33:21.389Z,92.10
2018-12-26T07:35:49.388Z,91.70
2018-12-26T07:38:17.239Z,91.80
2018-12-26T07:40:45.088Z,91.70
2018-12-26T07:43:13.052Z,91.70
2018-12-26T07:45:40.953Z,91.30
2018-12-26T07:48:08.818Z,91.50
2018-12-26T07:50:36.774Z,91.70
2018-12-26T07:53:04.613Z,91.20
2018-12-26T07:55:32.472Z,91.40
2018-12-26T07:58:00.476Z,92.00
2018-12-26T08:00:28.355Z,91.80
2018-12-26T08:02:56.314Z,91.60
2018-12-26T08:05:26.014Z,91.30
2018-12-26T08:07:53.841Z,91.50
2018-12-26T08:10:21.782Z,91.40
2018-12-26T08:12:49.792Z,91.40
2018-12-26T08:15:17.690Z,91.10
2018-12-26T08:17:45.528Z,90.90
2018-12-26T08:20:13.496Z,91.30
2018-12-26T08:22:41.385Z,91.60
2018-12-26T08:25:09.584Z,90.90
2018-12-26T08:27:37.508Z,91.30
2018-12-26T08:30:05.691Z,91.30
2018-12-26T08:32:33.708Z,91.30
2018-12-26T08:35:01.687Z,91.50
2018-12-26T08:37:29.930Z,91.60
2018-12-26T08:39:57.827Z,91.70
2018-12-26T08:42:25.773Z,91.80
2018-12-26T08:44:53.745Z,91.90
2018-12-26T08:47:21.686Z,92.40
2018-12-26T08:49:49.702Z,91.90
2018-12-26T08:52:17.777Z,91.50
2018-12-26T08:54:45.747Z,91.40
2018-12-26T08:57:13.717Z,92.00
2018-12-26T08:59:42.890Z,92.20
2018-12-26T09:02:10.843Z,92.30
2018-12-26T09:04:38.780Z,92.40
2018-12-26T09:07:06.691Z,91.60
2018-12-26T09:09:34.803Z,90.30
2018-12-26T09:12:02.931Z,91.00
2018-12-26T09:14:30.891Z,91.00
2018-12-26T09:16:58.932Z,91.30
2018-12-26T09:19:26.884Z,91.10
2018-12-26T09:21:54.787Z,91.70
2018-12-26T09:24:23.278Z,91.60
2018-12-26T09:26:51.388Z,91.30
2018-12-26T09:29:19.246Z,90.70
2018-12-26T09:31:47.149Z,89.40
2018-12-26T09:34:15.355Z,90.60
2018-12-26T09:36:43.255Z,90.30
2018-12-26T09:39:11.977Z,90.80
2018-12-26T09:41:40.163Z,91.30
2018-12-26T09:44:08.056Z,91.20
2018-12-26T09:46:35.935Z,91.80
2018-12-26T09:49:03.903Z,92.40
2018-12-26T09:51:33.916Z,93.00
2018-12-26T09:54:03.389Z,92.70
2018-12-26T09:56:31.273Z,92.90
2018-12-26T09:58:59.159Z,92.80
2018-12-26T10:01:27.248Z,92.90
2018-12-26T10:03:55.095Z,92.70
2018-12-26T10:06:23.013Z,93.00
2018-12-26T10:08:51.410Z,93.50
2018-12-26T10:11:19.349Z,92.40
2018-12-26T10:13:47.162Z,92.20
2018-12-26T10:16:15.148Z,92.00
2018-12-26T10:18:43.128Z,92.00
2018-12-26T10:21:11.107Z,91.60
2018-12-26T10:23:38.963Z,92.30
2018-12-26T10:26:06.941Z,92.10
2018-12-26T10:28:34.948Z,91.90
2018-12-26T10:31:03.035Z,91.30
2018-12-26T10:33:31.030Z,91.40
2018-12-26T10:35:58.914Z,91.40
2018-12-26T10:38:26.795Z,91.40
2018-12-26T10:40:54.815Z,90.90
2018-12-26T10:43:24.931Z,90.70
2018-12-26T10:45:52.797Z,91.00
2018-12-26T10:48:20.778Z,90.50
2018-12-26T10:50:48.693Z,90.70
2018-12-26T10:53:16.637Z,90.40
2018-12-26T10:55:44.621Z,90.30
2018-12-26T10:58:12.818Z,90.50
2018-12-26T11:00:40.763Z,90.20
2018-12-26T11:03:08.847Z,90.40
2018-12-26T11:05:36.697Z,90.70
2018-12-26T11:08:04.643Z,90.60
2018-12-26T11:10:32.675Z,90.00
2018-12-26T11:13:00.665Z,90.20
2018-12-26T11:15:28.938Z,90.00
2018-12-26T11:17:57.055Z,90.40
2018-12-26T11:20:25.276Z,90.80
2018-12-26T11:22:53.356Z,90.90
2018-12-26T11:25:21.636Z,90.90
2018-12-26T11:27:49.518Z,90.70
2018-12-26T11:30:17.435Z,90.50
2018-12-26T11:32:45.507Z,90.10
2018-12-26T11:35:13.446Z,90.70
2018-12-26T11:37:41.368Z,90.80
2018-12-26T11:40:10.132Z,90.60
2018-12-26T11:42:38.027Z,91.20
2018-12-26T11:45:06.514Z,91.40
2018-12-26T11:47:34.384Z,91.90
2018-12-26T11:50:02.787Z,92.30
2018-12-26T11:52:30.854Z,91.50
2018-12-26T11:54:59.213Z,91.50
2018-12-26T11:57:27.270Z,91.00
2018-12-26T11:59:55.756Z,91.50
2018-12-26T12:02:26.559Z,91.90
2018-12-26T12:04:54.627Z,92.00
2018-12-26T12:07:22.736Z,92.10
2018-12-26T12:09:50.767Z,92.60
2018-12-26T12:12:21.363Z,92.70
2018-12-26T12:14:49.731Z,91.90
2018-12-26T12:17:18.582Z,91.70
2018-12-26T12:19:46.589Z,90.90
2018-12-26T12:22:14.640Z,90.10
2018-12-26T12:24:43.533Z,91.20
2018-12-26T12:27:11.418Z,90.70
2018-12-26T12:29:39.863Z,91.70
2018-12-26T12:32:07.764Z,91.50
2018-12-26T12:34:37.046Z,91.10
2018-12-26T12:37:05.247Z,90.80
2018-12-26T12:39:35.957Z,91.90
2018-12-26T12:42:04.000Z,92.80
2018-12-26T12:44:31.973Z,92.20
2018-12-26T12:47:00.080Z,92.10
2018-12-26T12:49:28.528Z,91.80
2018-12-26T12:51:56.776Z,91.00
2018-12-26T12:54:27.403Z,91.10
2018-12-26T12:56:55.435Z,91.20
2018-12-26T12:59:23.416Z,91.70
2018-12-26T13:01:51.364Z,92.40
2018-12-26T13:04:19.398Z,92.80
2018-12-26T13:06:47.389Z,92.50
2018-12-26T13:09:15.493Z,92.70
2018-12-26T13:11:45.785Z,93.10
2018-12-26T13:14:14.026Z,93.40
2018-12-26T13:16:42.053Z,93.50
2018-12-26T13:19:10.009Z,93.00
2018-12-26T13:21:38.283Z,93.10
2018-12-26T13:24:06.282Z,92.60
2018-12-26T13:26:34.326Z,92.80
2018-12-26T13:29:02.351Z,93.50
2018-12-26T13:31:30.336Z,93.20
2018-12-26T13:34:03.412Z,93.30
2018-12-26T13:36:31.990Z,93.40
2018-12-26T13:39:00.016Z,93.00
2018-12-26T13:41:29.380Z,93.20
2018-12-26T13:43:57.539Z,92.50
2018-12-26T13:46:33.558Z,92.90
2018-12-26T13:48:55.451Z,92.80
2018-12-26T13:51:23.985Z,93.00
2018-12-26T13:53:52.001Z,92.50
2018-12-26T13:56:21.297Z,92.40
2018-12-26T13:58:49.408Z,92.20
2018-12-26T14:01:17.310Z,92.30
2018-12-26T14:03:45.202Z,91.70
2018-12-26T14:06:13.174Z,91.90
2018-12-26T14:08:41.005Z,91.50
2018-12-26T14:11:08.894Z,92.50
2018-12-26T14:13:36.878Z,92.60
2018-12-26T14:16:04.732Z,92.60
2018-12-26T14:18:32.967Z,92.80
2018-12-26T14:21:00.978Z,92.90
2018-12-26T14:23:28.783Z,92.10
2018-12-26T14:25:56.710Z,92.20
2018-12-26T14:28:24.716Z,91.80
2018-12-26T14:30:52.584Z,92.00
2018-12-26T14:33:20.455Z,92.00
2018-12-26T14:35:58.093Z,92.00
2018-12-26T14:38:26.628Z,92.00
2018-12-26T14:40:54.638Z,92.30
2018-12-26T14:43:22.645Z,92.60
2018-12-26T14:45:50.531Z,92.70
2018-12-26T14:48:18.400Z,92.70
2018-12-26T14:50:46.352Z,92.50
2018-12-26T14:53:14.245Z,91.80
2018-12-26T14:55:42.144Z,92.10
2018-12-26T14:58:10.158Z,91.60
2018-12-26T15:00:38.071Z,91.60
2018-12-26T15:03:05.933Z,91.60
2018-12-26T15:05:33.956Z,91.20
2018-12-26T15:08:01.863Z,91.70
2018-12-26T15:10:29.860Z,91.70
2018-12-26T15:12:57.723Z,91.50
2018-12-26T15:15:25.766Z,91.60
2018-12-26T15:17:54.764Z,91.40
2018-12-26T15:20:22.825Z,91.40
2018-12-26T15:22:50.854Z,91.30
2018-12-26T15:25:18.752Z,91.00
2018-12-26T15:27:46.639Z,90.90
2018-12-26T15:30:14.631Z,91.10
2018-12-26T15:32:42.651Z,91.10
2018-12-26T15:35:10.522Z,91.60
2018-12-26T15:37:38.589Z,91.80
2018-12-26T15:40:09.056Z,91.70
2018-12-26T15:42:36.972Z,91.60
2018-12-26T15:45:05.197Z,91.80
2018-12-26T15:47:33.168Z,91.80
2018-12-26T15:50:01.054Z,91.40
2018-12-26T15:52:28.941Z,91.70
2018-12-26T15:54:57.017Z,91.50
2018-12-26T15:57:24.903Z,91.60
2018-12-26T15:59:52.797Z,91.60
2018-12-26T16:02:20.840Z,91.50
2018-12-26T16:04:48.828Z,91.60
2018-12-26T16:07:16.911Z,91.60
2018-12-26T16:09:44.855Z,91.60
2018-12-26T16:12:12.712Z,91.70
2018-12-26T16:14:40.778Z,91.70
2018-12-26T16:17:08.661Z,91.70
2018-12-26T16:19:36.517Z,91.00
2018-12-26T16:22:04.519Z,91.90
2018-12-26T16:24:33.777Z,91.80
2018-12-26T16:27:01.693Z,91.80
2018-12-26T16:29:29.755Z,91.90
2018-12-26T16:31:57.651Z,92.30
2018-12-26T16:34:25.729Z,92.10
2018-12-26T16:36:53.640Z,91.80
2018-12-26T16:39:21.573Z,91.50
2018-12-26T16:41:49.592Z,91.90
2018-12-26T16:44:17.583Z,91.40
2018-12-26T16:46:45.569Z,92.30
2018-12-26T16:49:13.446Z,92.60
2018-12-26T16:51:41.821Z,92.00
2018-12-26T16:54:09.877Z,92.80
2018-12-26T16:56:37.814Z,92.80
2018-12-26T16:59:05.769Z,93.10
2018-12-26T17:01:33.688Z,94.00
2018-12-26T17:04:01.739Z,93.60
2018-12-26T17:06:29.711Z,93.30
2018-12-26T17:08:57.661Z,93.50
2018-12-26T17:19:25.075Z,93.40
2018-12-26T17:21:52.876Z,92.90
2018-12-26T17:24:20.856Z,94.10
2018-12-26T17:26:48.662Z,94.20
2018-12-26T17:29:16.443Z,94.60
2018-12-26T17:31:44.486Z,94.50
2018-12-26T17:34:12.789Z,94.90
2018-12-26T17:36:40.641Z,94.60
2018-12-26T17:39:08.553Z,94.80
2018-12-26T17:41:36.371Z,94.60
2018-12-26T17:44:04.176Z,94.20
2018-12-26T17:46:32.215Z,94.40
2018-12-26T17:49:00.023Z,94.80
2018-12-26T17:51:27.868Z,94.80
2018-12-26T17:54:51.846Z,94.40
2018-12-26T17:57:32.404Z,94.30
2018-12-26T18:00:38.787Z,94.30
2018-12-26T18:03:06.589Z,94.10
2018-12-26T18:05:34.485Z,94.60
2018-12-26T18:08:02.361Z,94.50
2018-12-26T18:10:30.227Z,94.70
2018-12-26T18:12:58.019Z,95.00
2018-12-26T18:15:25.899Z,95.10
2018-12-26T18:17:53.776Z,94.70
2018-12-26T18:20:21.590Z,94.50
2018-12-26T18:22:49.415Z,94.40
2018-12-26T18:25:17.332Z,94.70
2018-12-26T18:27:45.145Z,94.60
2018-12-26T18:30:13.015Z,94.30
2018-12-26T18:32:40.957Z,94.20
2018-12-26T18:35:09.686Z,94.00
2018-12-26T18:37:37.619Z,93.90
2018-12-26T18:40:07.015Z,93.70
2018-12-26T18:42:34.938Z,93.60
2018-12-26T18:45:04.052Z,93.50
2018-12-26T18:47:31.870Z,93.30
2018-12-26T18:49:59.694Z,92.70
2018-12-26T18:52:27.714Z,92.60
2018-12-26T18:54:55.633Z,93.40
2018-12-26T18:57:23.460Z,93.30
2018-12-26T18:59:51.367Z,92.80
2018-12-26T19:02:20.390Z,93.00
2018-12-26T19:04:48.269Z,93.00
2018-12-26T19:07:16.189Z,92.80
2018-12-26T19:09:43.996Z,93.10
2018-12-26T19:12:12.002Z,93.20
2018-12-26T19:14:40.381Z,92.70
2018-12-26T19:17:08.514Z,93.00
2018-12-26T19:19:36.340Z,92.90
2018-12-26T19:22:04.329Z,92.90
2018-12-26T19:24:32.243Z,93.00
2018-12-26T19:27:02.447Z,93.10
2018-12-26T19:29:30.443Z,92.80
2018-12-26T19:31:58.385Z,92.80
2018-12-26T19:34:26.515Z,92.80
2018-12-26T19:36:54.419Z,92.30
2018-12-26T19:39:22.301Z,92.90
2018-12-26T19:41:50.311Z,92.90
2018-12-26T19:44:18.284Z,92.90
2018-12-26T19:46:46.115Z,92.80
2018-12-26T19:49:13.989Z,92.70
2018-12-26T19:51:41.933Z,92.60
2018-12-26T19:54:09.730Z,92.90
2018-12-26T19:56:37.704Z,93.00
2018-12-26T19:59:05.572Z,92.80
2018-12-26T20:01:33.503Z,92.70
2018-12-26T20:04:01.732Z,93.10
2018-12-26T20:06:29.525Z,92.80
2018-12-26T20:08:57.350Z,92.70
2018-12-26T20:11:25.326Z,92.60
2018-12-26T20:13:53.250Z,92.70
2018-12-26T20:16:21.183Z,92.70
2018-12-26T20:18:49.092Z,92.40
2018-12-26T20:21:18.511Z,92.50
2018-12-26T20:23:46.331Z,92.50
2018-12-26T20:26:14.525Z,92.50
2018-12-26T20:28:43.291Z,92.30
2018-12-26T20:31:11.150Z,92.40
2018-12-26T20:33:39.036Z,92.60
2018-12-26T20:36:07.598Z,92.40
2018-12-26T20:38:38.393Z,92.40
2018-12-26T20:41:08.785Z,92.40
2018-12-26T20:43:37.760Z,92.50
2018-12-26T20:46:06.160Z,92.60
2018-12-26T20:48:34.251Z,92.70
2018-12-26T20:51:02.073Z,92.90
2018-12-26T20:53:29.918Z,92.60
2018-12-26T20:55:58.069Z,92.70
2018-12-26T20:58:25.941Z,92.50
2018-12-26T21:00:53.921Z,92.80
2018-12-26T21:03:21.793Z,92.70
2018-12-26T21:05:49.746Z,92.80
2018-12-26T21:08:17.710Z,92.10
2018-12-26T21:10:45.532Z,93.00
2018-12-26T21:13:15.507Z,93.00
2018-12-26T21:15:43.472Z,92.50
2018-12-26T21:18:11.380Z,92.40
2018-12-26T21:20:39.239Z,93.00
2018-12-26T21:23:08.168Z,92.90
2018-12-26T21:25:36.987Z,93.00
2018-12-26T21:28:05.006Z,92.50
2018-12-26T21:30:32.975Z,92.90
2018-12-26T21:33:02.749Z,92.90
2018-12-26T21:35:34.848Z,92.60
2018-12-26T21:38:05.458Z,92.30
2018-12-26T21:40:36.587Z,92.90
2018-12-26T21:43:04.655Z,92.80
2018-12-26T21:45:33.826Z,92.30
2018-12-26T21:48:03.295Z,93.30
2018-12-26T21:50:31.323Z,92.90
2018-12-26T21:53:01.971Z,93.10
2018-12-26T21:55:29.955Z,93.40
2018-12-26T21:57:59.665Z,92.60
2018-12-26T22:00:27.686Z,92.80
2018-12-26T22:02:55.718Z,93.50
2018-12-26T22:05:25.798Z,93.20
2018-12-26T22:07:53.856Z,93.00
2018-12-26T22:10:22.879Z,93.20
2018-12-26T22:12:52.484Z,93.10
2018-12-26T22:15:20.457Z,93.10
2018-12-26T22:17:48.611Z,93.40
2018-12-26T22:20:16.717Z,93.20
2018-12-26T22:22:44.790Z,93.60
2018-12-26T22:25:12.894Z,93.70
2018-12-26T22:27:40.856Z,94.20
2018-12-26T22:30:10.661Z,94.00
2018-12-26T22:32:40.792Z,94.10
2018-12-26T22:35:10.821Z,94.10
2018-12-26T22:37:38.777Z,94.10
2018-12-26T22:40:08.714Z,93.80
2018-12-26T22:42:38.879Z,93.90
2018-12-26T22:45:07.835Z,93.30
2018-12-26T22:47:35.817Z,93.60
2018-12-26T22:50:04.616Z,93.50
2018-12-26T22:52:32.674Z,93.60
2018-12-26T22:55:00.774Z,93.70
2018-12-26T22:57:31.862Z,93.90
2018-12-26T22:59:59.983Z,93.50
2018-12-26T23:02:38.651Z,93.30
2018-12-26T23:05:00.770Z,93.30
2018-12-26T23:07:28.916Z,93.10
2018-12-26T23:09:56.843Z,92.40
2018-12-26T23:12:25.794Z,92.90
2018-12-26T23:14:53.761Z,92.40
2018-12-26T23:17:21.859Z,92.20
2018-12-26T23:19:56.087Z,92.20
2018-12-26T23:22:24.987Z,92.80
2018-12-26T23:24:53.019Z,92.40
2018-12-26T23:27:24.083Z,92.40
2018-12-26T23:29:53.199Z,91.90
2018-12-26T23:32:22.544Z,92.00
2018-12-26T23:34:50.501Z,92.30
2018-12-26T23:37:18.449Z,92.40
2018-12-26T23:39:48.504Z,92.50
2018-12-26T23:42:16.388Z,91.90
2018-12-26T23:44:44.322Z,92.40
2018-12-26T23:47:12.455Z,92.20
2018-12-26T23:49:40.506Z,92.10
2018-12-26T23:52:13.481Z,92.10
2018-12-26T23:54:43.603Z,92.00
2018-12-26T23:57:11.527Z,91.40
2018-12-26T23:59:39.442Z,91.70
